Aviation Digital Data Service (ADDS)

Output produced by METARs form (0134 UTC 23 November 2017)
found at http://www.aviationweather.gov/adds/metars/
 
HKEL 230100Z 08007KT CAVOK 12/10 Q1021
TAF HKEL 222300Z 2300/2324 09005KT 9999 FEW018 
     TEMPO 2300/2306 CAVOK 
     BECMG 2308/2311 32005KT 9999 FEW022CB 
     TEMPO 2312/2318 VRB05KT -TSRA FEW024CB BKN025 
     BECMG 2320/2323 FEW018CB
       
HKJK 230100Z 36005KT 9999 BKN017 18/16 Q1018
TAF HKJK 222300Z 2300/2406 04005KT 9999 BKN016 
     TEMPO 2300/2306 -DZ FEW008 BKN015 
     BECMG 2308/2311 06010KT BKN025 
     TEMPO 2312/2318 06010KT SCT028 
     BECMG 2320/2323 SCT020 
     TEMPO 2400/2406 -RA FEW008 BKN016
       
HKKI 230100Z 12003KT 9999 FEW020CB BKN080 20/17 Q1014
TAF HKKI 222300Z 2223/2324 22010KT 9999 FEW020 
     TEMPO 2300/2306 00000KT FEW021 BKN090 
     BECMG 2308/2311 08010KT FEW024CB 
     TEMPO 2312/2318 22010KT FEW028 
     BECMG 2320/2323 FEW020CB
       
HKML 230000Z 00000KT 9999 FEW019 27/25 Q1009
HKMO 230100Z 24003KT 9999 FEW021 26/24 Q1009 NOSIG
TAF HKMO 222300Z 2300/2406 00000KT 9999 FEW022 
     BECMG 2300/2306 00000KT FEW020 
     BECMG 2309/2312 13010KT FEW025 
     BECMG 2318/2321 14005KT FEW020 
     BECMG 2400/2406 00000KT FEW019